DAL2087 KATL-KMCO
Flight info
| Callsign | DAL2087 |
|---|---|
| Flight time | N/A |
| Altitude | 31000 |
| Route | SMLTZ3 WALET ZJAYX GRNCH5 |
| Aircraft | A320/M-SDE3FGHIRWY/LB1 |
Departure
| Time | 2026-05-04 02:45 |
|---|---|
| Airport | Hartsfield Jackson Atlanta International Airport (KATL) |
Arrival
| Time | N/A |
|---|---|
| Airport | Orlando International Airport (KMCO) |
| Time | Latitude | Longitude | Altitude | Speed | Heading |
|---|---|---|---|---|---|
| 2026-05-04 02:09 | 33.63900 | -84.42993 | 1006 ft | 0 kts | 107° |
| 2026-05-04 02:35 | 33.63900 | -84.42995 | 1006 ft | 1 kts | 107° |
| 2026-05-04 02:35 | 33.63902 | -84.43003 | 1006 ft | 1 kts | 107° |
| 2026-05-04 02:36 | 33.63905 | -84.43012 | 1006 ft | 1 kts | 107° |
| 2026-05-04 02:36 | 33.63907 | -84.43021 | 1006 ft | 2 kts | 107° |
| 2026-05-04 02:36 | 33.63909 | -84.43030 | 1006 ft | 1 kts | 107° |
| 2026-05-04 02:36 | 33.63912 | -84.43039 | 1006 ft | 1 kts | 107° |
| 2026-05-04 02:37 | 33.63914 | -84.43048 | 1006 ft | 1 kts | 113° |
| 2026-05-04 02:37 | 33.63921 | -84.43063 | 1006 ft | 3 kts | 131° |
| 2026-05-04 02:37 | 33.63935 | -84.43078 | 1006 ft | 3 kts | 155° |
| 2026-05-04 02:37 | 33.63936 | -84.43079 | 1006 ft | 0 kts | 155° |
| 2026-05-04 02:39 | 33.63930 | -84.43075 | 1006 ft | 8 kts | 153° |
| 2026-05-04 02:39 | 33.63916 | -84.43066 | 1006 ft | 2 kts | 152° |
| 2026-05-04 02:40 | 33.63860 | -84.43064 | 1006 ft | 16 kts | 181° |
| 2026-05-04 02:40 | 33.63823 | -84.43065 | 1006 ft | 0 kts | 181° |
| 2026-05-04 02:41 | 33.63798 | -84.43066 | 1006 ft | 11 kts | 181° |
| 2026-05-04 02:41 | 33.63727 | -84.43063 | 1006 ft | 15 kts | 175° |
| 2026-05-04 02:41 | 33.63663 | -84.42956 | 1006 ft | 18 kts | 83° |
| 2026-05-04 02:42 | 33.63665 | -84.42790 | 1006 ft | 21 kts | 92° |
| 2026-05-04 02:42 | 33.63654 | -84.42605 | 1006 ft | 23 kts | 89° |
| 2026-05-04 02:42 | 33.63656 | -84.42408 | 1006 ft | 24 kts | 89° |
| 2026-05-04 02:42 | 33.63656 | -84.42200 | 1006 ft | 25 kts | 91° |
| 2026-05-04 02:43 | 33.63654 | -84.41983 | 1006 ft | 27 kts | 89° |
| 2026-05-04 02:43 | 33.63655 | -84.41755 | 1006 ft | 28 kts | 90° |
| 2026-05-04 02:43 | 33.63657 | -84.41519 | 1005 ft | 29 kts | 89° |
| 2026-05-04 02:43 | 33.63657 | -84.41280 | 1006 ft | 30 kts | 90° |
| 2026-05-04 02:44 | 33.63657 | -84.41031 | 1006 ft | 30 kts | 89° |
| 2026-05-04 02:44 | 33.63615 | -84.40835 | 1006 ft | 21 kts | 153° |
| 2026-05-04 02:44 | 33.63518 | -84.40827 | 1007 ft | 11 kts | 186° |
| 2026-05-04 02:44 | 33.63467 | -84.40890 | 1007 ft | 12 kts | 270° |
| 2026-05-04 02:45 | 33.63471 | -84.41162 | 1005 ft | 72 kts | 270° |
| 2026-05-04 02:45 | 33.63471 | -84.42039 | 1007 ft | 141 kts | 270° |
| 2026-05-04 02:45 | 33.63473 | -84.43256 | 1365 ft | 162 kts | 272° |
| 2026-05-04 02:45 | 33.63493 | -84.44603 | 2096 ft | 177 kts | 273° |
| 2026-05-04 02:46 | 33.63556 | -84.46162 | 2491 ft | 214 kts | 274° |
| 2026-05-04 02:46 | 33.63591 | -84.48022 | 3079 ft | 233 kts | 269° |
| 2026-05-04 02:46 | 33.63548 | -84.50052 | 3667 ft | 253 kts | 268° |
| 2026-05-04 02:46 | 33.63501 | -84.52192 | 4518 ft | 259 kts | 269° |
| 2026-05-04 02:47 | 33.63475 | -84.54069 | 5333 ft | 262 kts | 269° |
| 2026-05-04 02:47 | 33.63471 | -84.54428 | 5479 ft | 263 kts | 269° |
| 2026-05-04 02:47 | 33.63465 | -84.55170 | 5769 ft | 265 kts | 270° |
| 2026-05-04 02:47 | 33.63458 | -84.56635 | 6360 ft | 269 kts | 270° |
| 2026-05-04 02:48 | 33.63456 | -84.57623 | 6740 ft | 271 kts | 270° |
| 2026-05-04 02:48 | 33.63453 | -84.59845 | 7619 ft | 274 kts | 271° |
| 2026-05-04 02:48 | 33.63452 | -84.61980 | 8461 ft | 277 kts | 271° |
| 2026-05-04 02:48 | 33.63388 | -84.63723 | 9132 ft | 281 kts | 261° |
| 2026-05-04 02:49 | 33.62810 | -84.65590 | 9857 ft | 288 kts | 240° |
| 2026-05-04 02:49 | 33.61580 | -84.67189 | 10560 ft | 297 kts | 217° |
| 2026-05-04 02:49 | 33.59815 | -84.68485 | 11347 ft | 302 kts | 211° |
| 2026-05-04 02:49 | 33.58242 | -84.69286 | 12001 ft | 307 kts | 196° |
| 2026-05-04 02:50 | 33.56275 | -84.69525 | 12723 ft | 313 kts | 177° |
| 2026-05-04 02:50 | 33.54282 | -84.69160 | 13442 ft | 318 kts | 171° |
| 2026-05-04 02:50 | 33.52886 | -84.68869 | 13937 ft | 320 kts | 171° |
| 2026-05-04 02:50 | 33.50675 | -84.68422 | 14649 ft | 323 kts | 172° |
| 2026-05-04 02:51 | 33.48603 | -84.68019 | 15308 ft | 326 kts | 172° |
| 2026-05-04 02:51 | 33.46381 | -84.67596 | 15991 ft | 329 kts | 173° |
| 2026-05-04 02:51 | 33.44494 | -84.67240 | 16555 ft | 332 kts | 172° |
| 2026-05-04 02:51 | 33.42664 | -84.66644 | 17116 ft | 337 kts | 158° |
| 2026-05-04 02:52 | 33.40660 | -84.65194 | 17780 ft | 344 kts | 140° |
| 2026-05-04 02:52 | 33.39319 | -84.63649 | 18199 ft | 351 kts | 136° |
| 2026-05-04 02:52 | 33.37635 | -84.61636 | 18381 ft | 369 kts | 136° |
| 2026-05-04 02:52 | 33.35942 | -84.59617 | 18541 ft | 385 kts | 136° |
| 2026-05-04 02:53 | 33.33999 | -84.57311 | 18730 ft | 400 kts | 136° |
| 2026-05-04 02:53 | 33.32017 | -84.54967 | 19247 ft | 405 kts | 136° |
| 2026-05-04 02:53 | 33.30010 | -84.52597 | 19813 ft | 408 kts | 136° |
| 2026-05-04 02:53 | 33.28009 | -84.50238 | 20357 ft | 411 kts | 136° |
| 2026-05-04 02:54 | 33.25960 | -84.47828 | 20909 ft | 415 kts | 136° |
| 2026-05-04 02:54 | 33.23896 | -84.45401 | 21455 ft | 419 kts | 136° |
| 2026-05-04 02:54 | 33.21810 | -84.42949 | 21992 ft | 422 kts | 136° |
| 2026-05-04 02:54 | 33.19705 | -84.40480 | 22528 ft | 426 kts | 136° |
| 2026-05-04 02:55 | 33.15436 | -84.35476 | 23602 ft | 433 kts | 136° |
| 2026-05-04 02:55 | 33.13280 | -84.32949 | 24047 ft | 437 kts | 136° |
| 2026-05-04 02:55 | 33.11104 | -84.30399 | 24478 ft | 440 kts | 136° |
| 2026-05-04 02:56 | 33.08912 | -84.27833 | 24922 ft | 442 kts | 136° |
| 2026-05-04 02:56 | 33.06711 | -84.25258 | 25366 ft | 445 kts | 136° |
| 2026-05-04 02:56 | 33.04489 | -84.22660 | 25806 ft | 448 kts | 136° |
| 2026-05-04 02:56 | 33.02237 | -84.20067 | 26189 ft | 451 kts | 139° |
| 2026-05-04 02:57 | 32.99734 | -84.17821 | 26644 ft | 451 kts | 149° |
| 2026-05-04 02:57 | 32.96990 | -84.16099 | 26998 ft | 453 kts | 159° |
| 2026-05-04 02:57 | 32.94018 | -84.14829 | 27372 ft | 455 kts | 163° |
| 2026-05-04 02:57 | 32.91011 | -84.13607 | 27737 ft | 458 kts | 162° |
| 2026-05-04 02:58 | 32.87984 | -84.12366 | 28091 ft | 461 kts | 162° |
| 2026-05-04 02:58 | 32.84938 | -84.11112 | 28435 ft | 464 kts | 162° |
| 2026-05-04 02:58 | 32.81880 | -84.09854 | 28770 ft | 467 kts | 162° |
| 2026-05-04 02:58 | 32.78798 | -84.08586 | 29090 ft | 469 kts | 162° |
| 2026-05-04 02:59 | 32.75705 | -84.07315 | 29407 ft | 472 kts | 162° |
| 2026-05-04 02:59 | 32.72592 | -84.06038 | 29666 ft | 475 kts | 162° |
| 2026-05-04 02:59 | 32.69456 | -84.04752 | 29986 ft | 478 kts | 162° |
| 2026-05-04 02:59 | 32.66309 | -84.03462 | 30286 ft | 480 kts | 162° |
| 2026-05-04 03:00 | 32.63144 | -84.02166 | 30556 ft | 482 kts | 162° |
| 2026-05-04 03:00 | 32.60001 | -84.00880 | 30842 ft | 484 kts | 162° |
| 2026-05-04 03:00 | 32.56812 | -83.99576 | 31088 ft | 486 kts | 162° |
| 2026-05-04 03:01 | 32.50414 | -83.96962 | 31143 ft | 485 kts | 162° |
| 2026-05-04 03:01 | 32.45027 | -83.94764 | 31146 ft | 486 kts | 162° |
| 2026-05-04 03:02 | 32.38666 | -83.92072 | 31151 ft | 487 kts | 158° |
| 2026-05-04 03:02 | 32.32861 | -83.88069 | 31121 ft | 478 kts | 144° |
| 2026-05-04 03:03 | 32.27562 | -83.83332 | 31124 ft | 482 kts | 145° |
| 2026-05-04 03:03 | 32.22196 | -83.78577 | 31127 ft | 482 kts | 145° |
| 2026-05-04 03:04 | 32.16834 | -83.73830 | 31118 ft | 478 kts | 146° |
| 2026-05-04 03:04 | 32.11514 | -83.69129 | 31119 ft | 478 kts | 146° |
| 2026-05-04 03:05 | 32.06183 | -83.64431 | 31118 ft | 478 kts | 146° |
| 2026-05-04 03:05 | 32.00846 | -83.59733 | 31119 ft | 478 kts | 146° |
| 2026-05-04 03:06 | 31.95545 | -83.55074 | 31120 ft | 479 kts | 146° |
| 2026-05-04 03:06 | 31.90233 | -83.50402 | 31105 ft | 471 kts | 148° |
| 2026-05-04 03:07 | 31.84973 | -83.45791 | 31113 ft | 472 kts | 148° |
| 2026-05-04 03:07 | 31.79702 | -83.41182 | 31150 ft | 472 kts | 148° |
| 2026-05-04 03:08 | 31.74435 | -83.36579 | 31163 ft | 472 kts | 148° |
| 2026-05-04 03:08 | 31.69166 | -83.31981 | 31165 ft | 472 kts | 148° |
| 2026-05-04 03:09 | 31.64772 | -83.28180 | 31166 ft | 470 kts | 151° |
| 2026-05-04 03:09 | 31.59089 | -83.24544 | 31116 ft | 464 kts | 161° |
| 2026-05-04 03:10 | 31.52309 | -83.20762 | 31141 ft | 464 kts | 160° |
| 2026-05-04 03:10 | 31.47420 | -83.18026 | 31136 ft | 464 kts | 160° |
| 2026-05-04 03:11 | 31.41641 | -83.14792 | 31126 ft | 460 kts | 161° |
| 2026-05-04 03:11 | 31.35905 | -83.11587 | 31141 ft | 457 kts | 161° |
| 2026-05-04 03:12 | 31.30146 | -83.08382 | 31136 ft | 458 kts | 161° |
| 2026-05-04 03:12 | 31.24396 | -83.05183 | 31133 ft | 457 kts | 161° |
| 2026-05-04 03:13 | 31.18647 | -83.01988 | 31134 ft | 458 kts | 161° |
| 2026-05-04 03:13 | 31.12925 | -82.98812 | 31146 ft | 458 kts | 161° |
| 2026-05-04 03:14 | 31.07172 | -82.95624 | 31154 ft | 458 kts | 161° |
| 2026-05-04 03:14 | 31.01413 | -82.92434 | 31165 ft | 458 kts | 162° |
| 2026-05-04 03:15 | 30.95639 | -82.89243 | 31151 ft | 458 kts | 162° |
| 2026-05-04 03:15 | 30.89901 | -82.85966 | 31150 ft | 463 kts | 157° |
| 2026-05-04 03:16 | 30.84595 | -82.81555 | 31180 ft | 472 kts | 149° |
| 2026-05-04 03:16 | 30.79452 | -82.76881 | 31177 ft | 472 kts | 150° |
| 2026-05-04 03:17 | 30.74271 | -82.72200 | 31178 ft | 472 kts | 150° |
| 2026-05-04 03:17 | 30.69073 | -82.67519 | 31203 ft | 473 kts | 150° |
| 2026-05-04 03:18 | 30.63877 | -82.62843 | 31200 ft | 472 kts | 150° |
| 2026-05-04 03:18 | 30.58666 | -82.58161 | 31200 ft | 472 kts | 150° |
| 2026-05-04 03:19 | 30.53459 | -82.53487 | 31206 ft | 472 kts | 150° |
| 2026-05-04 03:19 | 30.48259 | -82.48827 | 31219 ft | 473 kts | 150° |
| 2026-05-04 03:20 | 30.43055 | -82.44170 | 31219 ft | 472 kts | 151° |
| 2026-05-04 03:20 | 30.37879 | -82.39544 | 31203 ft | 472 kts | 151° |
| 2026-05-04 03:21 | 30.32696 | -82.34916 | 31215 ft | 470 kts | 151° |
| 2026-05-04 03:21 | 30.27512 | -82.30298 | 31203 ft | 470 kts | 151° |
| 2026-05-04 03:22 | 30.22278 | -82.25808 | 31201 ft | 462 kts | 158° |
| 2026-05-04 03:22 | 30.19445 | -82.24134 | 31197 ft | 451 kts | 167° |
| 2026-05-04 03:22 | 30.16493 | -82.23007 | 31130 ft | 441 kts | 175° |
| 2026-05-04 03:23 | 30.10524 | -82.21783 | 31185 ft | 438 kts | 179° |
| 2026-05-04 03:23 | 30.04520 | -82.20595 | 31175 ft | 438 kts | 179° |
| 2026-05-04 03:24 | 29.98520 | -82.19409 | 31176 ft | 438 kts | 179° |
| 2026-05-04 03:24 | 29.92533 | -82.18226 | 30866 ft | 435 kts | 179° |
| 2026-05-04 03:24 | 29.89541 | -82.17637 | 30128 ft | 438 kts | 179° |
| 2026-05-04 03:25 | 29.86514 | -82.17038 | 28927 ft | 444 kts | 179° |
| 2026-05-04 03:25 | 29.83447 | -82.16431 | 27802 ft | 450 kts | 178° |
| 2026-05-04 03:25 | 29.80346 | -82.15813 | 26756 ft | 453 kts | 178° |
| 2026-05-04 03:25 | 29.77240 | -82.15194 | 25724 ft | 455 kts | 178° |
| 2026-05-04 03:26 | 29.74113 | -82.14572 | 24672 ft | 457 kts | 178° |
| 2026-05-04 03:26 | 29.70972 | -82.13949 | 23750 ft | 458 kts | 177° |
| 2026-05-04 03:26 | 29.67849 | -82.13328 | 22827 ft | 453 kts | 177° |
| 2026-05-04 03:26 | 29.64749 | -82.12710 | 21932 ft | 449 kts | 177° |
| 2026-05-04 03:27 | 29.61715 | -82.12106 | 21068 ft | 446 kts | 177° |
| 2026-05-04 03:27 | 29.58665 | -82.11500 | 20195 ft | 443 kts | 177° |
| 2026-05-04 03:27 | 29.55648 | -82.10900 | 19479 ft | 437 kts | 177° |
| 2026-05-04 03:27 | 29.52661 | -82.10308 | 18664 ft | 434 kts | 177° |